createdAt,value
2023-01-13T00:00:24.504Z,98236.56
2023-01-13T00:03:12.043Z,98246.47
2023-01-13T00:05:39.156Z,98239.19
2023-01-13T00:08:06.560Z,98240.91
2023-01-13T00:10:35.409Z,98235.72
2023-01-13T00:13:05.208Z,98233.84
2023-01-13T00:15:33.358Z,98247.94
2023-01-13T00:18:00.642Z,98242.59
2023-01-13T00:20:27.576Z,98246.19
2023-01-13T00:22:56.383Z,98238.13
2023-01-13T00:25:23.351Z,98237.50
2023-01-13T00:27:50.507Z,98231.00
2023-01-13T00:30:17.614Z,98234.31
2023-01-13T00:32:44.996Z,98223.78
2023-01-13T00:35:12.009Z,98217.75
2023-01-13T00:37:39.480Z,98221.22
2023-01-13T00:40:07.772Z,98215.09
2023-01-13T00:42:53.461Z,98208.41
2023-01-13T00:45:20.241Z,98207.78
2023-01-13T00:47:47.449Z,98206.56
2023-01-13T00:50:14.424Z,98215.09
2023-01-13T00:52:42.355Z,98204.22
2023-01-13T00:55:09.595Z,98199.91
2023-01-13T00:57:36.753Z,98201.16
2023-01-13T01:00:04.800Z,98197.16
2023-01-13T01:02:32.010Z,98198.34
2023-01-13T01:05:00.135Z,98196.03
2023-01-13T01:07:27.345Z,98198.72
2023-01-13T01:09:54.285Z,98188.34
2023-01-13T01:12:21.443Z,98184.16
2023-01-13T01:14:48.409Z,98191.75
2023-01-13T01:17:15.582Z,98187.56
2023-01-13T01:19:42.593Z,98184.84
2023-01-13T01:22:09.766Z,98181.84
2023-01-13T01:24:36.791Z,98182.44
2023-01-13T01:27:04.285Z,98185.31
2023-01-13T01:29:31.239Z,98185.63
2023-01-13T01:31:59.177Z,98175.69
2023-01-13T01:34:26.095Z,98176.47
2023-01-13T01:36:53.254Z,98182.38
2023-01-13T01:39:21.149Z,98184.84
2023-01-13T01:42:06.815Z,98173.38
2023-01-13T01:44:42.725Z,98174.94
2023-01-13T01:47:15.146Z,98172.66
2023-01-13T01:49:44.313Z,98167.41
2023-01-13T01:52:24.661Z,98164.88
2023-01-13T01:55:03.019Z,98161.97
2023-01-13T01:57:42.799Z,98154.63
2023-01-13T02:00:10.619Z,98146.25
2023-01-13T02:02:38.201Z,98150.28
2023-01-13T02:05:05.685Z,98147.28
2023-01-13T02:07:37.260Z,98141.38
2023-01-13T02:10:10.073Z,98138.50
2023-01-13T02:12:38.716Z,98140.25
2023-01-13T02:15:17.546Z,98136.94
2023-01-13T02:18:31.676Z,98137.97
2023-01-13T02:22:09.579Z,98133.13
2023-01-13T02:24:56.778Z,98135.69
2023-01-13T02:28:00.281Z,98130.41
2023-01-13T02:31:08.979Z,98139.34
2023-01-13T02:33:41.946Z,98135.75
2023-01-13T02:36:27.428Z,98137.25
2023-01-13T02:39:13.309Z,98136.72
2023-01-13T02:42:24.726Z,98133.91
2023-01-13T02:45:03.521Z,98124.91
2023-01-13T02:47:36.708Z,98124.97
2023-01-13T02:50:12.256Z,98119.03
2023-01-13T02:52:57.310Z,98099.88
2023-01-13T02:55:38.930Z,98111.19
2023-01-13T02:58:13.037Z,98104.53
2023-01-13T03:00:41.659Z,98097.16
2023-01-13T03:03:08.958Z,98087.31
2023-01-13T03:05:36.863Z,98091.88
2023-01-13T03:08:39.771Z,98096.47
2023-01-13T03:11:12.000Z,98088.31
2023-01-13T03:13:55.901Z,98094.44
2023-01-13T03:17:03.865Z,98081.00
2023-01-13T03:19:51.698Z,98080.91
2023-01-13T03:22:41.143Z,98087.53
2023-01-13T03:25:25.743Z,98089.41
2023-01-13T03:28:23.804Z,98086.28
2023-01-13T03:31:00.927Z,98085.28
2023-01-13T03:33:46.297Z,98085.44
2023-01-13T03:36:18.028Z,98083.31
2023-01-13T03:38:53.634Z,98068.34
2023-01-13T03:41:33.030Z,98070.38
2023-01-13T03:45:07.915Z,98066.97
2023-01-13T03:47:44.519Z,98064.50
2023-01-13T03:50:22.613Z,98062.22
2023-01-13T03:53:06.702Z,98065.53
2023-01-13T03:55:44.149Z,98059.34
2023-01-13T03:58:22.588Z,98061.91
2023-01-13T04:01:14.933Z,98056.94
2023-01-13T04:03:57.444Z,98055.22
2023-01-13T04:06:38.293Z,98054.44
2023-01-13T04:09:22.433Z,98046.38
2023-01-13T04:12:19.170Z,98059.72
2023-01-13T04:14:46.891Z,98062.00
2023-01-13T04:17:15.582Z,98062.69
2023-01-13T04:19:42.792Z,98063.34
2023-01-13T04:22:09.751Z,98059.56
2023-01-13T04:24:37.272Z,98070.72
2023-01-13T04:27:04.561Z,98064.34
2023-01-13T04:29:32.144Z,98062.06
2023-01-13T04:31:58.955Z,98063.94
2023-01-13T04:34:28.301Z,98062.16
2023-01-13T04:36:55.333Z,98064.34
2023-01-13T04:39:22.472Z,98057.00
2023-01-13T04:41:58.056Z,98060.00
2023-01-13T04:44:27.423Z,98053.88
2023-01-13T04:46:54.587Z,98065.72
2023-01-13T04:49:21.783Z,98067.09
2023-01-13T04:51:48.658Z,98056.56
2023-01-13T04:54:16.337Z,98062.22
2023-01-13T04:56:43.342Z,98059.28
2023-01-13T04:59:12.847Z,98064.88
2023-01-13T05:01:40.859Z,98056.03
2023-01-13T05:04:08.828Z,98053.94
2023-01-13T05:06:35.966Z,98057.56
2023-01-13T05:09:03.458Z,98045.03
2023-01-13T05:11:49.030Z,98055.06
2023-01-13T05:14:34.800Z,98063.19
2023-01-13T05:17:02.053Z,98061.84
2023-01-13T05:19:39.300Z,98061.84
2023-01-13T05:22:25.384Z,98062.03
2023-01-13T05:25:10.980Z,98057.72
2023-01-13T05:27:37.883Z,98041.66
2023-01-13T05:30:06.537Z,98043.97
2023-01-13T05:32:33.659Z,98049.88
2023-01-13T05:35:00.857Z,98045.41
2023-01-13T05:37:27.904Z,98039.84
2023-01-13T05:40:15.387Z,98034.59
2023-01-13T05:43:02.728Z,98039.44
2023-01-13T05:45:33.432Z,98043.59
2023-01-13T05:48:00.708Z,98041.22
2023-01-13T05:50:28.675Z,98039.00
2023-01-13T05:52:55.867Z,98032.31
2023-01-13T05:55:23.071Z,98041.34
2023-01-13T05:57:50.122Z,98044.13
2023-01-13T06:00:18.193Z,98048.13
2023-01-13T06:02:45.211Z,98048.97
2023-01-13T06:05:12.422Z,98050.84
2023-01-13T06:07:39.264Z,98047.88
2023-01-13T06:10:07.575Z,98064.03
2023-01-13T06:12:34.605Z,98064.41
2023-01-13T06:15:01.765Z,98059.97
2023-01-13T06:17:28.742Z,98067.72
2023-01-13T06:19:55.789Z,98055.47
2023-01-13T06:22:28.191Z,98068.56
2023-01-13T06:24:55.420Z,98067.63
2023-01-13T06:27:23.394Z,98068.47
2023-01-13T06:29:50.893Z,98065.06
2023-01-13T06:32:29.317Z,98072.03
2023-01-13T06:35:05.562Z,98069.84
2023-01-13T06:37:34.621Z,98072.97
2023-01-13T06:40:06.377Z,98058.41
2023-01-13T06:42:55.762Z,98072.63
2023-01-13T06:45:26.856Z,98072.72
2023-01-13T06:47:54.685Z,98073.44
2023-01-13T06:50:21.892Z,98071.44
2023-01-13T06:52:48.877Z,98068.47
2023-01-13T06:55:16.065Z,98069.16
2023-01-13T06:57:55.356Z,98066.44
2023-01-13T07:00:25.421Z,98060.47
2023-01-13T07:02:52.945Z,98063.03
2023-01-13T07:05:21.204Z,98067.09
2023-01-13T07:07:48.320Z,98068.78
2023-01-13T07:10:22.374Z,98067.63
2023-01-13T07:13:08.977Z,98075.63
2023-01-13T07:15:36.350Z,98067.53
2023-01-13T07:18:03.680Z,98068.78
2023-01-13T07:20:31.859Z,98067.28
2023-01-13T07:22:58.853Z,98081.16
2023-01-13T07:25:26.098Z,98079.69
2023-01-13T07:27:53.059Z,98079.63
2023-01-13T07:30:22.673Z,98077.56
2023-01-13T07:32:49.603Z,98080.13
2023-01-13T07:35:21.749Z,98081.13
2023-01-13T07:37:48.883Z,98080.38
2023-01-13T07:40:16.551Z,98068.19
2023-01-13T07:43:03.670Z,98071.72
2023-01-13T07:45:30.838Z,98067.63
2023-01-13T07:47:57.759Z,98067.47
2023-01-13T07:50:25.066Z,98070.00
2023-01-13T07:52:52.069Z,98067.28
2023-01-13T07:55:19.311Z,98065.00
2023-01-13T07:57:48.804Z,98068.84
2023-01-13T08:00:16.967Z,98070.34
2023-01-13T08:02:44.174Z,98057.69
2023-01-13T08:05:11.530Z,98062.69
2023-01-13T08:07:38.416Z,98057.41
2023-01-13T08:10:06.344Z,98071.03
2023-01-13T08:12:54.381Z,98059.13
2023-01-13T08:15:24.428Z,98060.47
2023-01-13T08:17:51.357Z,98061.44
2023-01-13T08:20:19.205Z,98066.59
2023-01-13T08:22:46.165Z,98064.13
2023-01-13T08:25:13.937Z,98063.88
2023-01-13T08:27:40.840Z,98063.44
2023-01-13T08:30:09.323Z,98064.25
2023-01-13T08:32:36.378Z,98048.38
2023-01-13T08:35:03.704Z,98054.84
2023-01-13T08:37:30.711Z,98070.19
2023-01-13T08:39:58.377Z,98055.38
2023-01-13T08:42:26.854Z,98066.63
2023-01-13T08:44:54.906Z,98067.16
2023-01-13T08:47:21.981Z,98076.34
2023-01-13T08:49:49.389Z,98084.91
2023-01-13T08:52:16.676Z,98078.28
2023-01-13T08:54:44.112Z,98094.03
2023-01-13T08:57:11.216Z,98090.47
2023-01-13T08:59:38.712Z,98093.94
2023-01-13T09:02:30.326Z,98078.63
2023-01-13T09:04:57.518Z,98078.91
2023-01-13T09:07:24.520Z,98087.91
2023-01-13T09:09:51.774Z,98088.59
2023-01-13T09:12:37.171Z,98089.38
2023-01-13T09:15:06.229Z,98091.25
2023-01-13T09:17:33.337Z,98096.94
2023-01-13T09:20:00.802Z,98089.19
2023-01-13T09:22:28.255Z,98085.00
2023-01-13T09:24:55.695Z,98080.84
2023-01-13T09:27:23.829Z,98076.16
2023-01-13T09:29:50.972Z,98071.81
2023-01-13T09:32:17.944Z,98078.38
2023-01-13T09:35:00.202Z,98064.16
2023-01-13T09:37:40.653Z,98068.41
2023-01-13T09:40:18.453Z,98059.13
2023-01-13T09:43:35.839Z,98051.81
2023-01-13T09:46:38.531Z,98052.16
2023-01-13T09:49:05.663Z,98060.31
2023-01-13T09:51:48.866Z,98049.59
2023-01-13T09:54:41.422Z,98044.50
2023-01-13T09:57:15.508Z,98049.94
2023-01-13T09:59:43.843Z,98047.38
2023-01-13T10:02:35.241Z,98030.25
2023-01-13T10:05:36.460Z,98033.31
2023-01-13T10:08:30.834Z,98047.38
2023-01-13T10:10:59.923Z,98034.56
2023-01-13T10:13:30.750Z,98025.56
2023-01-13T10:16:36.684Z,98025.31
2023-01-13T10:19:18.099Z,98019.00
2023-01-13T10:22:09.112Z,98016.19
2023-01-13T10:25:01.200Z,98022.81
2023-01-13T10:27:37.456Z,98024.41
2023-01-13T10:30:21.585Z,98019.91
2023-01-13T10:32:57.265Z,98022.28
2023-01-13T10:35:59.491Z,98019.78
2023-01-13T10:38:40.377Z,98009.84
2023-01-13T10:41:16.977Z,98005.78
2023-01-13T10:43:57.142Z,98019.50
2023-01-13T10:46:25.025Z,98019.69
2023-01-13T10:48:58.096Z,98006.31
2023-01-13T10:51:31.440Z,98006.47
2023-01-13T10:54:20.168Z,98008.63
2023-01-13T10:56:47.445Z,98008.38
2023-01-13T10:59:27.641Z,98011.59
2023-01-13T11:02:25.295Z,98021.59
2023-01-13T11:04:53.161Z,98017.06
2023-01-13T11:07:41.639Z,98017.34
2023-01-13T11:10:23.672Z,98010.91
2023-01-13T11:13:16.556Z,98014.53
2023-01-13T11:16:04.702Z,98006.69
2023-01-13T11:19:02.163Z,98004.22
2023-01-13T11:21:49.716Z,98005.50
2023-01-13T11:24:45.025Z,98001.94
2023-01-13T11:27:17.536Z,98002.88
2023-01-13T11:29:59.571Z,98000.81
2023-01-13T11:32:33.529Z,97994.38
2023-01-13T11:35:11.080Z,97993.09
2023-01-13T11:37:44.647Z,97984.84
2023-01-13T11:40:25.740Z,97991.00
2023-01-13T11:43:11.046Z,97984.94
2023-01-13T11:45:55.968Z,97993.09
2023-01-13T11:48:30.930Z,97989.56
2023-01-13T11:51:14.102Z,97991.66
2023-01-13T11:53:46.954Z,97990.44
2023-01-13T11:56:58.923Z,97998.38
2023-01-13T11:59:56.235Z,97996.00
2023-01-13T12:02:44.733Z,97992.97
2023-01-13T12:05:40.789Z,97991.28
2023-01-13T12:08:26.167Z,97983.34
2023-01-13T12:11:11.761Z,97976.81
2023-01-13T12:14:20.217Z,97986.47
2023-01-13T12:16:50.760Z,97998.56
2023-01-13T12:19:30.959Z,98003.47
2023-01-13T12:22:23.643Z,97994.97
2023-01-13T12:25:04.224Z,97994.97
2023-01-13T12:28:19.767Z,97997.41
2023-01-13T12:31:01.301Z,98001.19
2023-01-13T12:33:45.962Z,98002.81
2023-01-13T12:36:22.788Z,98001.38
2023-01-13T12:38:59.492Z,97999.84
2023-01-13T12:42:33.160Z,97999.28
2023-01-13T12:45:12.100Z,98005.16
2023-01-13T12:47:43.693Z,98010.81
2023-01-13T12:50:23.666Z,98009.09
2023-01-13T12:52:56.773Z,98020.19
2023-01-13T12:55:27.894Z,98026.41
2023-01-13T12:58:05.643Z,98030.00
2023-01-13T13:01:10.919Z,98043.13
2023-01-13T13:03:38.577Z,98050.00
2023-01-13T13:06:29.483Z,98064.56
2023-01-13T13:09:17.525Z,98075.47
2023-01-13T13:12:03.939Z,98086.47
2023-01-13T13:14:37.125Z,98085.50
2023-01-13T13:17:31.669Z,98089.38
2023-01-13T13:20:01.550Z,98105.25
2023-01-13T13:22:28.565Z,98114.00
2023-01-13T13:24:55.820Z,98108.78
2023-01-13T13:27:31.665Z,98099.16
2023-01-13T13:30:04.551Z,98095.22
2023-01-13T13:32:53.216Z,98092.97
2023-01-13T13:35:58.012Z,98073.34
2023-01-13T13:39:31.707Z,98056.44
2023-01-13T13:42:36.840Z,98047.84
2023-01-13T13:45:52.263Z,98055.06
2023-01-13T13:48:31.080Z,98049.19
2023-01-13T13:51:03.698Z,98067.25
2023-01-13T13:53:41.908Z,98089.97
2023-01-13T13:56:27.417Z,98072.59
2023-01-13T13:58:55.376Z,98082.00
2023-01-13T14:01:29.713Z,98074.53
2023-01-13T14:04:30.169Z,98088.41
2023-01-13T14:07:07.170Z,98067.88
2023-01-13T14:09:46.189Z,98086.31
2023-01-13T14:12:24.623Z,98091.06
2023-01-13T14:14:54.268Z,98100.69
2023-01-13T14:17:30.009Z,98105.78
2023-01-13T14:20:14.685Z,98099.41
2023-01-13T14:22:48.323Z,98109.28
2023-01-13T14:25:47.407Z,98101.22
2023-01-13T14:28:29.505Z,98113.50
2023-01-13T14:30:57.549Z,98111.13
2023-01-13T14:33:43.880Z,98113.84
2023-01-13T14:36:20.532Z,98118.59
2023-01-13T14:39:05.837Z,98128.47
2023-01-13T14:41:37.079Z,98140.00
2023-01-13T14:44:27.883Z,98138.31
2023-01-13T14:46:59.112Z,98140.47
2023-01-13T14:49:40.405Z,98143.97
2023-01-13T14:52:18.045Z,98151.72
2023-01-13T14:54:53.313Z,98155.53
2023-01-13T14:57:27.924Z,98145.28
2023-01-13T15:00:14.665Z,98137.66
2023-01-13T15:02:58.049Z,98136.75
2023-01-13T15:05:36.129Z,98135.66
2023-01-13T15:08:14.102Z,98127.53
2023-01-13T15:11:05.925Z,98133.41
2023-01-13T15:14:01.489Z,98138.41
2023-01-13T15:16:33.865Z,98126.84
2023-01-13T15:19:02.102Z,98123.09
2023-01-13T15:21:29.533Z,98140.44
2023-01-13T15:23:56.779Z,98130.34
2023-01-13T15:26:27.922Z,98126.84
2023-01-13T15:28:58.552Z,98136.69
2023-01-13T15:31:27.703Z,98148.16
2023-01-13T15:33:55.212Z,98160.31
2023-01-13T15:36:30.224Z,98157.84
2023-01-13T15:38:59.392Z,98162.34
2023-01-13T15:41:45.773Z,98173.63
2023-01-13T15:44:34.417Z,98183.88
2023-01-13T15:47:07.364Z,98184.25
2023-01-13T15:49:46.564Z,98186.47
2023-01-13T15:52:26.413Z,98187.69
2023-01-13T15:54:54.908Z,98189.34
2023-01-13T15:57:35.686Z,98191.09
2023-01-13T16:00:13.611Z,98202.97
2023-01-13T16:02:40.655Z,98211.25
2023-01-13T16:05:08.374Z,98227.69
2023-01-13T16:07:35.473Z,98224.84
2023-01-13T16:10:05.877Z,98222.13
2023-01-13T16:12:32.951Z,98223.84
2023-01-13T16:15:00.075Z,98229.97
2023-01-13T16:17:30.333Z,98223.63
2023-01-13T16:19:57.553Z,98226.81
2023-01-13T16:22:24.497Z,98233.69
2023-01-13T16:24:51.753Z,98236.44
2023-01-13T16:27:25.741Z,98249.34
2023-01-13T16:29:53.380Z,98253.03
2023-01-13T16:32:21.059Z,98261.56
2023-01-13T16:34:49.555Z,98255.22
2023-01-13T16:37:21.398Z,98250.81
2023-01-13T16:39:48.691Z,98257.78
2023-01-13T16:42:15.867Z,98264.13
2023-01-13T16:44:44.107Z,98274.78
2023-01-13T16:47:16.917Z,98270.66
2023-01-13T16:49:45.140Z,98272.66
2023-01-13T16:52:12.235Z,98282.88
2023-01-13T16:54:39.568Z,98291.00
2023-01-13T16:57:07.920Z,98301.69
2023-01-13T16:59:35.103Z,98296.41
2023-01-13T17:02:02.197Z,98296.41
2023-01-13T17:04:29.506Z,98297.13
2023-01-13T17:07:08.433Z,98302.31
2023-01-13T17:09:35.720Z,98293.47
2023-01-13T17:12:02.724Z,98309.50
2023-01-13T17:14:29.972Z,98305.72
2023-01-13T17:17:01.179Z,98305.88
2023-01-13T17:19:28.396Z,98314.72
2023-01-13T17:21:55.369Z,98316.16
2023-01-13T17:24:24.776Z,98318.66
2023-01-13T17:26:52.039Z,98332.75
2023-01-13T17:29:25.812Z,98334.84
2023-01-13T17:31:53.406Z,98343.06
2023-01-13T17:34:21.691Z,98343.16
2023-01-13T17:36:48.678Z,98354.53
2023-01-13T17:39:25.978Z,98357.03
2023-01-13T17:41:56.030Z,98362.06
2023-01-13T17:44:23.703Z,98360.38
2023-01-13T17:46:51.105Z,98369.31
2023-01-13T17:49:21.850Z,98365.34
2023-01-13T17:51:51.136Z,98373.25
2023-01-13T17:57:35.659Z,98378.72
2023-01-13T18:00:05.599Z,98375.09
2023-01-13T18:02:33.435Z,98394.09
2023-01-13T18:05:00.764Z,98392.13
2023-01-13T18:07:27.683Z,98402.34
2023-01-13T18:09:54.878Z,98407.47
2023-01-13T18:12:21.830Z,98411.41
2023-01-13T18:14:49.118Z,98418.56
2023-01-13T18:17:17.006Z,98419.50
2023-01-13T18:20:02.642Z,98423.78
2023-01-13T18:22:48.084Z,98407.50
2023-01-13T18:25:33.640Z,98409.94
2023-01-13T18:28:04.166Z,98399.56
2023-01-13T18:30:31.384Z,98396.19
2023-01-13T18:32:58.364Z,98391.13
2023-01-13T18:35:25.577Z,98400.78
2023-01-13T18:37:52.538Z,98404.47
2023-01-13T18:40:19.878Z,98404.38
2023-01-13T18:42:54.159Z,98402.56
2023-01-13T18:45:32.265Z,98417.25
2023-01-13T18:48:02.914Z,98417.38
2023-01-13T18:50:31.277Z,98419.91
2023-01-13T18:52:58.678Z,98421.19
2023-01-13T18:55:28.707Z,98422.09
2023-01-13T18:57:56.635Z,98431.03
2023-01-13T19:00:25.002Z,98431.09
2023-01-13T19:05:35.548Z,98427.00
2023-01-13T19:08:03.668Z,98424.38
2023-01-13T19:10:32.621Z,98429.06
2023-01-13T19:13:01.370Z,98434.16
2023-01-13T19:15:28.922Z,98443.63
2023-01-13T19:17:55.966Z,98437.44
2023-01-13T19:20:23.107Z,98437.56
2023-01-13T19:22:54.401Z,98435.91
2023-01-13T19:25:21.731Z,98444.78
2023-01-13T19:27:48.679Z,98449.91
2023-01-13T19:30:17.392Z,98457.97
2023-01-13T19:32:44.325Z,98459.13
2023-01-13T19:35:13.183Z,98468.66
2023-01-13T19:37:40.432Z,98467.75
2023-01-13T19:40:09.716Z,98461.94
2023-01-13T19:42:55.557Z,98476.66
2023-01-13T19:45:31.539Z,98471.72
2023-01-13T19:48:05.454Z,98472.50
2023-01-13T19:50:38.772Z,98469.69
2023-01-13T19:53:06.996Z,98475.69
2023-01-13T19:55:34.608Z,98478.25
2023-01-13T19:58:02.014Z,98477.47
2023-01-13T20:00:29.291Z,98481.84
2023-01-13T20:03:00.745Z,98478.47
2023-01-13T20:05:29.046Z,98493.56
2023-01-13T20:07:55.945Z,98496.81
2023-01-13T20:10:24.601Z,98506.47
2023-01-13T20:12:51.854Z,98509.84
2023-01-13T20:15:19.303Z,98522.72
2023-01-13T20:17:46.372Z,98526.03
2023-01-13T20:20:16.156Z,98517.47
2023-01-13T20:22:43.226Z,98514.03
2023-01-13T20:25:11.504Z,98520.78
2023-01-13T20:27:39.451Z,98521.56
2023-01-13T20:30:09.636Z,98519.84
2023-01-13T20:32:37.506Z,98525.00
2023-01-13T20:35:05.684Z,98517.94
2023-01-13T20:37:39.491Z,98511.25
2023-01-13T20:40:09.457Z,98511.25
2023-01-13T20:42:44.981Z,98518.28
2023-01-13T20:45:20.586Z,98516.59
2023-01-13T20:47:47.913Z,98521.00
2023-01-13T20:50:17.265Z,98516.59
2023-01-13T20:52:45.975Z,98518.50
2023-01-13T20:55:13.901Z,98513.19
2023-01-13T20:57:42.949Z,98515.41
2023-01-13T21:00:10.952Z,98517.75
2023-01-13T21:02:40.444Z,98532.38
2023-01-13T21:05:08.375Z,98515.19
2023-01-13T21:07:35.563Z,98529.66
2023-01-13T21:10:02.669Z,98520.81
2023-01-13T21:12:48.180Z,98538.41
2023-01-13T21:15:17.752Z,98536.69
2023-01-13T21:18:06.505Z,98541.13
2023-01-13T21:20:36.648Z,98543.22
2023-01-13T21:23:05.373Z,98545.94
2023-01-13T21:25:35.432Z,98544.41
2023-01-13T21:28:05.602Z,98544.41
2023-01-13T21:30:33.648Z,98543.38
2023-01-13T21:33:01.252Z,98552.03
2023-01-13T21:35:28.331Z,98548.84
2023-01-13T21:37:55.702Z,98545.28
2023-01-13T21:40:22.639Z,98550.66
2023-01-13T21:43:08.276Z,98545.19
2023-01-13T21:45:53.939Z,98554.63
2023-01-13T21:48:21.583Z,98544.94
2023-01-13T21:50:48.743Z,98552.22
2023-01-13T21:53:16.042Z,98568.59
2023-01-13T21:55:42.998Z,98561.66
2023-01-13T21:58:14.166Z,98562.25
2023-01-13T22:00:44.555Z,98564.03
2023-01-13T22:03:15.122Z,98573.41
2023-01-13T22:05:42.322Z,98573.34
2023-01-13T22:08:12.641Z,98586.53
2023-01-13T22:10:57.475Z,98591.63
2023-01-13T22:13:44.959Z,98594.13
2023-01-13T22:16:12.169Z,98590.72
2023-01-13T22:18:39.471Z,98596.00
2023-01-13T22:21:06.829Z,98593.34
2023-01-13T22:23:34.004Z,98597.78
2023-01-13T22:26:06.843Z,98591.97
2023-01-13T22:28:40.668Z,98594.00
2023-01-13T22:31:15.804Z,98592.09
2023-01-13T22:33:46.989Z,98590.06
2023-01-13T22:36:15.432Z,98599.91
2023-01-13T22:38:42.631Z,98603.56
2023-01-13T22:41:10.493Z,98607.13
2023-01-13T22:43:39.276Z,98621.44
2023-01-13T22:46:12.169Z,98612.63
2023-01-13T22:48:41.418Z,98618.81
2023-01-13T22:51:14.902Z,98622.94
2023-01-13T22:53:42.997Z,98628.00
2023-01-13T22:56:20.936Z,98620.81
2023-01-13T22:58:49.052Z,98627.84
2023-01-13T23:01:17.665Z,98626.03
2023-01-13T23:03:47.988Z,98623.31
2023-01-13T23:06:16.384Z,98629.34
2023-01-13T23:08:44.002Z,98640.75
2023-01-13T23:11:14.481Z,98632.06
2023-01-13T23:13:43.354Z,98643.50
2023-01-13T23:16:18.134Z,98648.63
2023-01-13T23:18:48.015Z,98650.66
2023-01-13T23:21:21.726Z,98651.72
2023-01-13T23:23:50.242Z,98654.88
2023-01-13T23:26:18.835Z,98653.00
2023-01-13T23:28:46.979Z,98653.78
2023-01-13T23:31:19.012Z,98647.44
2023-01-13T23:33:47.030Z,98651.72
2023-01-13T23:36:18.442Z,98646.31
2023-01-13T23:38:46.553Z,98652.53
2023-01-13T23:41:20.791Z,98659.41
2023-01-13T23:43:55.036Z,98657.69
2023-01-13T23:46:22.622Z,98648.91
2023-01-13T23:48:50.675Z,98648.91
2023-01-13T23:51:21.281Z,98649.94
2023-01-13T23:53:51.019Z,98643.63
2023-01-13T23:56:22.613Z,98659.69
2023-01-13T23:58:51.366Z,98648.94
